Time;durP1;ratioP1;P1;durP2;ratioP2;P2;SDS_P1;SDS_P2;PMS_P1;PMS_P2;Temp;Humidity;BMP_temperature;BMP_pressure;BME280_temperature;BME280_humidity;BME280_pressure;Samples;Min_cycle;Max_cycle;Signal;HPM_P1;HPM_P2
2022/02/28 00:02:04;;;;;;;;;;;230.80;1203.20;;;;;;5074380;28;19909;-66
2022/02/28 00:04:30;;;;;;;;;;;230.80;1177.60;;;;;;5074439;28;19913;-66
2022/02/28 00:06:55;;;;;;;;;;;230.80;1203.20;;;;;;5074283;28;20354;-66
2022/02/28 00:09:21;;;;;;;;;;;230.80;1203.20;;;;;;5073924;28;19920;-66
2022/02/28 00:11:46;;;;;;;;;;;230.70;1203.20;;;;;;5072647;28;20054;-64
2022/02/28 00:14:12;;;;;;;;;;;230.70;1177.60;;;;;;5074030;28;20368;-67
2022/02/28 00:16:39;;;;;;;;;;;230.70;1177.60;;;;;;5073960;28;20273;-65
2022/02/28 00:19:05;;;;;;;;;;;230.60;1203.20;;;;;;5074181;28;19954;-65
2022/02/28 00:21:30;;;;;;;;;;;230.60;1203.20;;;;;;5090034;28;20308;-68
2022/02/28 00:23:56;;;;;;;;;;;230.50;1203.20;;;;;;5074077;28;19962;-65
2022/02/28 00:26:21;;;;;;;;;;;230.50;1203.20;;;;;;5074058;28;20268;-66
2022/02/28 00:28:47;;;;;;;;;;;230.50;1177.60;;;;;;5073909;28;19916;-68
2022/02/28 00:31:12;;;;;;;;;;;230.50;1203.20;;;;;;5105929;28;20264;-65
2022/02/28 00:33:38;;;;;;;;;;;230.50;1203.20;;;;;;5073931;28;19954;-68
2022/02/28 00:36:04;;;;;;;;;;;230.40;1203.20;;;;;;5073283;28;19909;-68
2022/02/28 00:38:30;;;;;;;;;;;230.40;1203.20;;;;;;5073950;28;19999;-68
2022/02/28 00:40:56;;;;;;;;;;;230.50;1177.60;;;;;;5074545;28;20362;-68
2022/02/28 00:43:21;;;;;;;;;;;230.50;1203.20;;;;;;5109949;28;20375;-66
2022/02/28 00:45:47;;;;;;;;;;;230.40;1203.20;;;;;;5078023;28;19915;-66
2022/02/28 00:48:13;;;;;;;;;;;230.40;1203.20;;;;;;5077754;28;19927;-65
2022/02/28 00:50:38;;;;;;;;;;;230.40;1203.20;;;;;;5077900;28;19916;-68
2022/02/28 00:53:04;;;;;;;;;;;230.40;1203.20;;;;;;5077601;28;20384;-64
2022/02/28 00:55:29;;;;;;;;;;;230.40;1203.20;;;;;;5076970;28;19916;-67
2022/02/28 00:57:55;;;;;;;;;;;205.70;1203.20;;;;;;5077709;28;19908;-65
2022/02/28 01:00:21;;;;;;;;;;;205.70;1203.20;;;;;;5077382;28;19912;-67
2022/02/28 01:02:47;;;;;;;;;;;205.70;1203.20;;;;;;5077496;28;19908;-68
2022/02/28 01:05:13;;;;;;;;;;;205.60;1203.20;;;;;;5077025;28;19909;-65
2022/02/28 01:07:39;;;;;;;;;;;205.70;1203.20;;;;;;5077290;28;19921;-65
2022/02/28 01:10:05;;;;;;;;;;;205.60;1203.20;;;;;;5077330;28;19922;-66
2022/02/28 01:12:31;;;;;;;;;;;205.60;1203.20;;;;;;5077677;28;19999;-66
2022/02/28 01:14:56;;;;;;;;;;;205.60;1203.20;;;;;;5076629;28;20425;-66
2022/02/28 01:17:22;;;;;;;;;;;205.60;1203.20;;;;;;5077282;28;19962;-66
2022/02/28 01:19:50;;;;;;;;;;;205.60;1203.20;;;;;;5076972;28;19913;-67
2022/02/28 01:22:15;;;;;;;;;;;205.60;1203.20;;;;;;5077222;28;19909;-68
2022/02/28 01:24:42;;;;;;;;;;;205.60;1203.20;;;;;;5109461;28;19913;-66
2022/02/28 01:27:08;;;;;;;;;;;205.60;1203.20;;;;;;5076955;28;19916;-67
2022/02/28 01:29:33;;;;;;;;;;;205.50;1203.20;;;;;;5076988;28;19916;-67
2022/02/28 01:31:59;;;;;;;;;;;205.60;1203.20;;;;;;5077215;28;19937;-67
2022/02/28 01:34:25;;;;;;;;;;;205.50;1203.20;;;;;;5077086;28;20234;-67
2022/02/28 01:36:51;;;;;;;;;;;205.50;1203.20;;;;;;5077020;28;19912;-67
2022/02/28 01:39:16;;;;;;;;;;;205.50;1228.80;;;;;;5076891;28;19908;-66
2022/02/28 01:41:42;;;;;;;;;;;205.50;1228.80;;;;;;5076845;28;19992;-67
2022/02/28 01:44:08;;;;;;;;;;;205.50;1228.80;;;;;;5076557;28;19999;-67
2022/02/28 01:46:34;;;;;;;;;;;205.50;1228.80;;;;;;5076666;28;20008;-66
2022/02/28 01:49:00;;;;;;;;;;;205.40;1228.80;;;;;;5076758;28;19948;-66
2022/02/28 01:51:26;;;;;;;;;;;205.40;1228.80;;;;;;5076757;28;19951;-66
2022/02/28 01:53:52;;;;;;;;;;;205.50;1228.80;;;;;;5075589;28;19996;-66
2022/02/28 01:56:17;;;;;;;;;;;205.40;1228.80;;;;;;5076325;28;20004;-66
2022/02/28 01:58:44;;;;;;;;;;;205.40;1228.80;;;;;;5076643;28;19915;-66
2022/02/28 02:01:09;;;;;;;;;;;205.40;1228.80;;;;;;5076566;28;19954;-66
2022/02/28 02:03:35;;;;;;;;;;;205.40;1228.80;;;;;;5076569;28;19916;-67
2022/02/28 02:06:00;;;;;;;;;;;205.40;1228.80;;;;;;5076530;28;19912;-68
2022/02/28 02:08:26;;;;;;;;;;;205.40;1228.80;;;;;;5076181;28;20251;-66
2022/02/28 02:10:52;;;;;;;;;;;205.40;1228.80;;;;;;5076101;28;19915;-67
2022/02/28 02:13:18;;;;;;;;;;;205.40;1228.80;;;;;;5076416;28;19916;-65
2022/02/28 02:15:44;;;;;;;;;;;205.30;1254.40;;;;;;5076157;28;19931;-65
2022/02/28 02:18:10;;;;;;;;;;;205.30;1254.40;;;;;;5076187;28;20273;-65
2022/02/28 02:20:39;;;;;;;;;;;205.30;1254.40;;;;;;5076292;28;19909;-67
2022/02/28 02:23:09;;;;;;;;;;;205.30;1254.40;;;;;;5076254;28;19916;-71
2022/02/28 02:25:34;;;;;;;;;;;205.30;1254.40;;;;;;5076021;28;19915;-68
2022/02/28 02:28:01;;;;;;;;;;;205.30;1254.40;;;;;;5075910;28;19909;-65
2022/02/28 02:30:27;;;;;;;;;;;205.30;1254.40;;;;;;5074762;28;19999;-67
2022/02/28 02:32:53;;;;;;;;;;;205.20;1280.00;;;;;;5076030;28;19961;-69
2022/02/28 02:35:18;;;;;;;;;;;205.20;1280.00;;;;;;5075310;28;19909;-65
2022/02/28 02:37:44;;;;;;;;;;;205.20;1280.00;;;;;;5076003;28;19908;-67
2022/02/28 02:40:10;;;;;;;;;;;205.20;1280.00;;;;;;5075637;28;19943;-63
2022/02/28 02:42:35;;;;;;;;;;;205.20;1280.00;;;;;;5076172;28;19932;-66
2022/02/28 02:45:01;;;;;;;;;;;205.10;1280.00;;;;;;5075945;28;20357;-68
2022/02/28 02:47:27;;;;;;;;;;;205.20;1280.00;;;;;;5075670;28;19909;-68
2022/02/28 02:49:52;;;;;;;;;;;205.20;1280.00;;;;;;5075622;28;20371;-68
2022/02/28 02:52:18;;;;;;;;;;;205.20;1280.00;;;;;;5075391;28;19967;-67
2022/02/28 02:54:43;;;;;;;;;;;205.20;1280.00;;;;;;5075652;28;19935;-68
2022/02/28 02:57:09;;;;;;;;;;;205.10;1305.60;;;;;;5075389;28;19913;-66
2022/02/28 02:59:34;;;;;;;;;;;205.10;1305.60;;;;;;5075538;28;20308;-66
2022/02/28 03:02:00;;;;;;;;;;;205.10;1305.60;;;;;;5075235;28;19913;-66
2022/02/28 03:04:26;;;;;;;;;;;205.10;1305.60;;;;;;5074975;28;19908;-65
2022/02/28 03:06:52;;;;;;;;;;;205.00;1305.60;;;;;;5075010;28;19932;-66
2022/02/28 03:09:17;;;;;;;;;;;204.90;1305.60;;;;;;5075435;28;19923;-65
2022/02/28 03:11:44;;;;;;;;;;;204.90;1305.60;;;;;;5075114;28;19908;-66
2022/02/28 03:14:10;;;;;;;;;;;204.90;1331.20;;;;;;5075183;28;19995;-66
2022/02/28 03:16:36;;;;;;;;;;;204.90;1305.60;;;;;;5075114;28;19932;-65
2022/02/28 03:19:01;;;;;;;;;;;204.90;1305.60;;;;;;5074906;28;20335;-65
2022/02/28 03:21:27;;;;;;;;;;;204.90;1305.60;;;;;;5074915;28;19962;-65
2022/02/28 03:23:52;;;;;;;;;;;204.90;1305.60;;;;;;5074971;28;19908;-66
2022/02/28 03:26:18;;;;;;;;;;;204.80;1305.60;;;;;;5074869;28;19909;-65
2022/02/28 03:28:43;;;;;;;;;;;204.80;1331.20;;;;;;5074526;28;19956;-65
2022/02/28 03:31:09;;;;;;;;;;;204.80;1331.20;;;;;;5075233;28;19908;-65
2022/02/28 03:33:35;;;;;;;;;;;180.10;1331.20;;;;;;5074367;28;19909;-65
2022/02/28 03:36:00;;;;;;;;;;;180.00;1331.20;;;;;;5074750;28;19912;-65
2022/02/28 03:38:26;;;;;;;;;;;180.10;1331.20;;;;;;5074790;28;19915;-67
2022/02/28 03:40:51;;;;;;;;;;;180.10;1331.20;;;;;;5074319;28;19932;-66
2022/02/28 03:43:17;;;;;;;;;;;180.00;1331.20;;;;;;5074223;28;19995;-66
2022/02/28 03:45:43;;;;;;;;;;;180.00;1331.20;;;;;;5074311;28;20372;-66
2022/02/28 03:48:08;;;;;;;;;;;180.00;1356.80;;;;;;5073067;28;19909;-65
2022/02/28 03:50:34;;;;;;;;;;;179.90;1356.80;;;;;;5074600;28;19915;-65
2022/02/28 03:53:00;;;;;;;;;;;179.90;1356.80;;;;;;5074624;28;19908;-65
2022/02/28 03:55:25;;;;;;;;;;;179.90;1356.80;;;;;;5072566;28;19913;-65
2022/02/28 03:57:51;;;;;;;;;;;179.90;1356.80;;;;;;5074309;28;19912;-66
2022/02/28 04:00:17;;;;;;;;;;;179.70;1382.40;;;;;;5074214;28;19908;-63
2022/02/28 04:02:43;;;;;;;;;;;179.80;1382.40;;;;;;5074203;28;19909;-65
2022/02/28 04:05:09;;;;;;;;;;;179.70;1382.40;;;;;;5074379;28;19999;-67
2022/02/28 04:07:35;;;;;;;;;;;179.80;1484.80;;;;;;5073965;28;19927;-66
2022/02/28 04:10:00;;;;;;;;;;;179.80;1408.00;;;;;;5074099;28;19916;-66
2022/02/28 04:12:26;;;;;;;;;;;179.80;1382.40;;;;;;5106245;28;19909;-65
2022/02/28 04:14:52;;;;;;;;;;;179.80;1408.00;;;;;;5074000;28;19916;-64
2022/02/28 04:17:18;;;;;;;;;;;179.90;1433.60;;;;;;5073899;28;20251;-64
2022/02/28 04:19:43;;;;;;;;;;;179.80;1408.00;;;;;;5106421;28;20023;-64
2022/02/28 04:22:09;;;;;;;;;;;179.80;1382.40;;;;;;5074688;28;19909;-64
2022/02/28 04:24:35;;;;;;;;;;;179.80;1382.40;;;;;;5074172;28;19954;-64
2022/02/28 04:27:00;;;;;;;;;;;179.70;1408.00;;;;;;5106369;28;19942;-64
2022/02/28 04:29:26;;;;;;;;;;;179.70;1408.00;;;;;;5074177;28;20378;-64
2022/02/28 04:31:52;;;;;;;;;;;179.70;1408.00;;;;;;5074012;28;19944;-64
2022/02/28 04:34:17;;;;;;;;;;;179.60;1408.00;;;;;;5074151;28;19908;-64
2022/02/28 04:36:43;;;;;;;;;;;179.60;1408.00;;;;;;5105909;28;19908;-66
2022/02/28 04:39:09;;;;;;;;;;;179.60;1408.00;;;;;;5073707;28;19908;-66
2022/02/28 04:41:35;;;;;;;;;;;179.50;1408.00;;;;;;5073748;28;19916;-65
2022/02/28 04:44:00;;;;;;;;;;;179.50;1408.00;;;;;;5073861;28;19920;-65
2022/02/28 04:46:26;;;;;;;;;;;179.60;1408.00;;;;;;5073797;28;19908;-65
2022/02/28 04:48:52;;;;;;;;;;;179.50;1408.00;;;;;;5073712;28;19924;-65
2022/02/28 04:51:17;;;;;;;;;;;179.50;1408.00;;;;;;5073570;28;19908;-66
2022/02/28 04:53:43;;;;;;;;;;;179.50;1408.00;;;;;;5073859;28;19909;-68
2022/02/28 04:56:08;;;;;;;;;;;179.40;1408.00;;;;;;5073808;28;19908;-67
2022/02/28 04:58:34;;;;;;;;;;;179.40;1433.60;;;;;;5073677;28;20346;-67
2022/02/28 05:01:00;;;;;;;;;;;179.40;1433.60;;;;;;5073736;28;19909;-66
2022/02/28 05:03:25;;;;;;;;;;;179.30;1433.60;;;;;;5073744;28;19908;-67
2022/02/28 05:05:51;;;;;;;;;;;179.30;1433.60;;;;;;5073357;28;19965;-67
2022/02/28 05:08:16;;;;;;;;;;;179.20;1433.60;;;;;;5073286;28;19987;-67
2022/02/28 05:10:42;;;;;;;;;;;179.20;1459.20;;;;;;5073635;28;19920;-67
2022/02/28 05:13:07;;;;;;;;;;;179.20;1433.60;;;;;;5073487;28;20322;-66
2022/02/28 05:15:33;;;;;;;;;;;179.20;1433.60;;;;;;5073761;28;19908;-67
2022/02/28 05:17:58;;;;;;;;;;;179.20;1459.20;;;;;;5073755;28;19912;-66
2022/02/28 05:20:24;;;;;;;;;;;179.20;1433.60;;;;;;5073692;28;20007;-67
2022/02/28 05:22:50;;;;;;;;;;;154.50;1459.20;;;;;;5073419;28;19914;-66
2022/02/28 05:25:15;;;;;;;;;;;154.40;1459.20;;;;;;5073590;28;20277;-66
2022/02/28 05:27:42;;;;;;;;;;;154.40;1459.20;;;;;;5071966;28;19913;-68
2022/02/28 05:30:08;;;;;;;;;;;154.40;1459.20;;;;;;5076946;28;19916;-65
2022/02/28 05:32:34;;;;;;;;;;;154.50;1459.20;;;;;;5077035;28;20281;-61
2022/02/28 05:35:00;;;;;;;;;;;154.50;1459.20;;;;;;5076867;28;19915;-65
2022/02/28 05:37:26;;;;;;;;;;;154.40;1484.80;;;;;;5076876;28;19995;-65
2022/02/28 05:39:51;;;;;;;;;;;154.50;1459.20;;;;;;5076577;28;19975;-64
2022/02/28 05:42:17;;;;;;;;;;;154.30;1484.80;;;;;;5076686;28;19999;-65
2022/02/28 05:44:42;;;;;;;;;;;154.40;1459.20;;;;;;5076765;28;19971;-65
2022/02/28 05:47:08;;;;;;;;;;;154.40;1459.20;;;;;;5076792;28;20054;-66
2022/02/28 05:49:33;;;;;;;;;;;154.40;1459.20;;;;;;5076820;28;20286;-68
2022/02/28 05:51:59;;;;;;;;;;;154.40;1459.20;;;;;;5076755;28;19908;-68
2022/02/28 05:54:24;;;;;;;;;;;154.30;1459.20;;;;;;5076509;28;19916;-65
2022/02/28 05:56:50;;;;;;;;;;;154.20;1459.20;;;;;;5076397;28;20362;-68
2022/02/28 05:59:15;;;;;;;;;;;154.30;1459.20;;;;;;5076783;28;20254;-67
2022/02/28 06:01:41;;;;;;;;;;;154.20;1459.20;;;;;;5076558;28;19913;-67
2022/02/28 06:04:07;;;;;;;;;;;154.20;1484.80;;;;;;5076610;28;19999;-67
2022/02/28 06:06:32;;;;;;;;;;;154.20;1484.80;;;;;;5076545;28;19943;-67
2022/02/28 06:08:58;;;;;;;;;;;154.20;1484.80;;;;;;5075927;28;19921;-67
2022/02/28 06:11:25;;;;;;;;;;;154.20;1484.80;;;;;;5076428;28;19909;-67
2022/02/28 06:13:51;;;;;;;;;;;154.20;1484.80;;;;;;5076117;28;19940;-67
2022/02/28 06:16:16;;;;;;;;;;;154.20;1484.80;;;;;;5108754;28;19968;-67
2022/02/28 06:18:42;;;;;;;;;;;154.20;1484.80;;;;;;5075894;28;19916;-67
2022/02/28 06:21:07;;;;;;;;;;;154.20;1484.80;;;;;;5075740;28;20273;-65
2022/02/28 06:23:33;;;;;;;;;;;154.10;1510.40;;;;;;5076343;28;19909;-65
2022/02/28 06:25:59;;;;;;;;;;;154.10;1510.40;;;;;;5075905;28;19996;-67
2022/02/28 06:28:25;;;;;;;;;;;154.10;1510.40;;;;;;5108399;28;19909;-67
2022/02/28 06:30:51;;;;;;;;;;;154.10;1510.40;;;;;;5076176;28;19965;-65
2022/02/28 06:33:16;;;;;;;;;;;154.10;1510.40;;;;;;5075884;28;20390;-68
2022/02/28 06:35:48;;;;;;;;;;;154.20;1510.40;;;;;;5076032;28;19908;-64
2022/02/28 06:38:14;;;;;;;;;;;154.20;1510.40;;;;;;5075753;28;19908;-69
2022/02/28 06:40:40;;;;;;;;;;;154.20;1612.80;;;;;;5075735;28;19909;-66
2022/02/28 06:43:06;;;;;;;;;;;154.20;1561.60;;;;;;5107780;28;19915;-65
2022/02/28 06:45:31;;;;;;;;;;;154.20;1536.00;;;;;;5075582;28;19912;-61
2022/02/28 06:47:57;;;;;;;;;;;154.10;1561.60;;;;;;5075927;28;19962;-65
2022/02/28 06:50:22;;;;;;;;;;;154.20;1536.00;;;;;;5075718;28;20034;-64
2022/02/28 06:52:48;;;;;;;;;;;154.10;1536.00;;;;;;5075670;28;19954;-66
2022/02/28 06:55:13;;;;;;;;;;;154.10;1638.40;;;;;;5075440;28;19954;-66
2022/02/28 06:57:39;;;;;;;;;;;154.10;1561.60;;;;;;5075213;28;19992;-65
2022/02/28 07:00:05;;;;;;;;;;;154.10;1561.60;;;;;;5075278;28;19930;-65
2022/02/28 07:02:30;;;;;;;;;;;154.00;1561.60;;;;;;5108360;27;19915;-65
2022/02/28 07:04:56;;;;;;;;;;;154.00;1561.60;;;;;;5074900;28;20293;-64
2022/02/28 07:07:22;;;;;;;;;;;154.10;1587.20;;;;;;5074872;28;19920;-65
2022/02/28 07:09:48;;;;;;;;;;;154.00;1561.60;;;;;;5075158;28;19916;-65
2022/02/28 07:12:13;;;;;;;;;;;154.00;1587.20;;;;;;5074976;28;20273;-64
2022/02/28 07:14:39;;;;;;;;;;;154.00;1561.60;;;;;;5075067;28;19909;-64
2022/02/28 07:17:05;;;;;;;;;;;154.00;1561.60;;;;;;5075133;28;20413;-64
2022/02/28 07:19:32;;;;;;;;;;;154.10;1587.20;;;;;;5075059;28;19916;-65
2022/02/28 07:21:58;;;;;;;;;;;154.10;1587.20;;;;;;5075114;28;20330;-64
2022/02/28 07:24:23;;;;;;;;;;;154.10;1587.20;;;;;;5074832;28;20006;-65
2022/02/28 07:26:49;;;;;;;;;;;154.10;1587.20;;;;;;5074698;28;19908;-64
2022/02/28 07:29:14;;;;;;;;;;;154.10;1587.20;;;;;;5074521;28;20316;-62
2022/02/28 07:31:41;;;;;;;;;;;154.10;1587.20;;;;;;5074810;28;19913;-63
2022/02/28 07:34:06;;;;;;;;;;;154.10;1587.20;;;;;;5074789;28;20372;-63
2022/02/28 07:36:32;;;;;;;;;;;154.20;1587.20;;;;;;5074680;28;19908;-63
2022/02/28 07:38:58;;;;;;;;;;;154.20;1612.80;;;;;;5074641;28;19915;-62
2022/02/28 07:41:23;;;;;;;;;;;154.20;1587.20;;;;;;5074469;28;19915;-64
2022/02/28 07:43:49;;;;;;;;;;;154.20;1587.20;;;;;;5074639;28;19908;-64
2022/02/28 07:46:14;;;;;;;;;;;154.20;1587.20;;;;;;5074605;28;19909;-64
2022/02/28 07:48:40;;;;;;;;;;;154.30;1587.20;;;;;;5074383;28;19917;-64
2022/02/28 07:51:05;;;;;;;;;;;154.30;1587.20;;;;;;5073664;28;19908;-64
2022/02/28 07:53:31;;;;;;;;;;;154.40;1587.20;;;;;;5074246;28;19913;-64
2022/02/28 07:55:56;;;;;;;;;;;154.50;1587.20;;;;;;5074188;28;19916;-65
2022/02/28 07:58:22;;;;;;;;;;;179.20;1587.20;;;;;;5074095;28;20369;-64
2022/02/28 08:00:47;;;;;;;;;;;179.40;1561.60;;;;;;5074242;28;19909;-63
2022/02/28 08:03:13;;;;;;;;;;;179.50;1561.60;;;;;;5074209;28;19943;-65
2022/02/28 08:05:39;;;;;;;;;;;179.50;1536.00;;;;;;5074329;28;19908;-65
2022/02/28 08:08:04;;;;;;;;;;;179.60;1561.60;;;;;;5074160;28;19963;-64
2022/02/28 08:10:30;;;;;;;;;;;179.70;1536.00;;;;;;5074157;28;19916;-63
2022/02/28 08:12:58;;;;;;;;;;;179.90;1536.00;;;;;;5073318;28;20122;-62
2022/02/28 08:15:23;;;;;;;;;;;180.00;1536.00;;;;;;5073953;28;19908;-65
2022/02/28 08:17:49;;;;;;;;;;;180.10;1510.40;;;;;;5074199;28;19951;-65
2022/02/28 08:20:14;;;;;;;;;;;204.80;1510.40;;;;;;5073762;28;19908;-65
2022/02/28 08:22:40;;;;;;;;;;;204.90;1484.80;;;;;;5073869;28;19954;-64
2022/02/28 08:25:06;;;;;;;;;;;204.90;1484.80;;;;;;5073811;28;19931;-64
2022/02/28 08:27:31;;;;;;;;;;;205.00;1484.80;;;;;;5073684;28;19913;-64
2022/02/28 08:29:57;;;;;;;;;;;205.00;1484.80;;;;;;5073155;28;19951;-64
2022/02/28 08:32:23;;;;;;;;;;;205.10;1484.80;;;;;;5105930;28;19909;-64
2022/02/28 08:34:48;;;;;;;;;;;205.10;1484.80;;;;;;5073768;28;19944;-65
2022/02/28 08:37:14;;;;;;;;;;;205.30;1459.20;;;;;;5073878;28;19961;-65
2022/02/28 08:39:39;;;;;;;;;;;205.30;1459.20;;;;;;5073939;28;19909;-65
2022/02/28 08:42:05;;;;;;;;;;;205.40;1433.60;;;;;;5073562;28;20278;-68
2022/02/28 08:44:31;;;;;;;;;;;205.50;1433.60;;;;;;5080223;28;20002;-65
2022/02/28 08:46:57;;;;;;;;;;;205.60;1433.60;;;;;;5092271;28;19908;-63
2022/02/28 08:49:22;;;;;;;;;;;205.70;1408.00;;;;;;5092482;28;20373;-61
2022/02/28 08:51:48;;;;;;;;;;;230.50;1459.20;;;;;;5091623;28;19951;-63
2022/02/28 08:54:14;;;;;;;;;;;230.60;1408.00;;;;;;5092530;28;20018;-62
2022/02/28 08:56:39;;;;;;;;;;;230.60;1408.00;;;;;;5092127;28;20273;-61
2022/02/28 08:59:05;;;;;;;;;;;230.70;1408.00;;;;;;5092180;28;19916;-60
2022/02/28 09:01:31;;;;;;;;;;;230.70;1382.40;;;;;;5092462;28;19958;-63
2022/02/28 09:03:56;;;;;;;;;;;230.70;1382.40;;;;;;5096258;28;19908;-61
2022/02/28 09:06:22;;;;;;;;;;;230.90;1382.40;;;;;;5098926;28;19923;-60
2022/02/28 09:08:48;;;;;;;;;;;230.90;1382.40;;;;;;5095970;28;20308;-61
2022/02/28 09:11:15;;;;;;;;;;;231.30;1715.20;;;;;;5096198;28;19951;-68
2022/02/28 09:13:41;;;;;;;;;;;231.20;1382.40;;;;;;5096254;28;19908;-69
2022/02/28 09:16:06;;;;;;;;;;;231.30;1356.80;;;;;;5096232;28;20319;-64
2022/02/28 09:18:32;;;;;;;;;;;231.30;1356.80;;;;;;5096174;28;19912;-71
2022/02/28 09:20:57;;;;;;;;;;;231.30;1331.20;;;;;;5096353;28;19909;-63
2022/02/28 09:23:23;;;;;;;;;;;231.30;1382.40;;;;;;5095963;28;20410;-65
2022/02/28 09:25:49;;;;;;;;;;;256.00;1331.20;;;;;;5096461;28;19991;-62
2022/02/28 09:28:14;;;;;;;;;;;256.00;1331.20;;;;;;5095849;28;19908;-71
2022/02/28 09:30:40;;;;;;;;;;;256.10;1331.20;;;;;;5096214;28;19908;-61
2022/02/28 09:33:06;;;;;;;;;;;256.10;1305.60;;;;;;5095843;28;19912;-71
2022/02/28 09:35:31;;;;;;;;;;;256.20;1305.60;;;;;;5096390;28;20610;-63
2022/02/28 09:37:58;;;;;;;;;;;256.20;1305.60;;;;;;5093108;28;19908;-69
2022/02/28 09:40:28;;;;;;;;;;;256.20;1305.60;;;;;;5095978;28;19915;-61
2022/02/28 09:43:00;;;;;;;;;;;256.20;1280.00;;;;;;5097004;28;19909;-62
2022/02/28 09:45:26;;;;;;;;;;;256.20;1305.60;;;;;;5096953;28;19908;-61
2022/02/28 09:47:55;;;;;;;;;;;256.20;1305.60;;;;;;5096787;28;19908;-64
2022/02/28 09:50:21;;;;;;;;;;;256.30;1305.60;;;;;;5096678;28;20312;-66
2022/02/28 09:52:47;;;;;;;;;;;256.30;1305.60;;;;;;5099551;28;19907;-61
2022/02/28 09:55:14;;;;;;;;;;;256.50;1305.60;;;;;;5097478;28;20377;-62
2022/02/28 09:57:46;;;;;;;;;;;256.50;1305.60;;;;;;5095067;28;19912;-64
2022/02/28 10:00:16;;;;;;;;;;;256.50;1280.00;;;;;;5093760;28;19919;-61
2022/02/28 10:02:42;;;;;;;;;;;256.60;1280.00;;;;;;5096135;28;19978;-61
2022/02/28 10:05:07;;;;;;;;;;;256.60;1280.00;;;;;;5096621;28;19912;-61
2022/02/28 10:07:33;;;;;;;;;;;256.60;1254.40;;;;;;5096614;28;19969;-61
2022/02/28 10:10:12;;;;;;;;;;;256.60;1280.00;;;;;;5096606;28;20399;-67
2022/02/28 10:12:38;;;;;;;;;;;256.60;1254.40;;;;;;5096399;28;19908;-61
2022/02/28 10:15:08;;;;;;;;;;;256.60;1254.40;;;;;;5096011;28;20314;-60
2022/02/28 10:17:57;;;;;;;;;;;256.70;1254.40;;;;;;5095260;28;19908;-61
2022/02/28 10:20:22;;;;;;;;;;;256.70;1254.40;;;;;;5072950;28;19912;-65
2022/02/28 10:22:55;;;;;;;;;;;256.70;1254.40;;;;;;5074173;28;19973;-63
2022/02/28 10:25:33;;;;;;;;;;;256.70;1254.40;;;;;;5073900;28;19913;-61
2022/02/28 10:28:06;;;;;;;;;;;256.80;1254.40;;;;;;5072935;28;20273;-72
2022/02/28 10:30:31;;;;;;;;;;;256.80;1228.80;;;;;;5073712;28;19924;-67
2022/02/28 10:32:57;;;;;;;;;;;256.80;1228.80;;;;;;5072550;28;19916;-66
2022/02/28 10:38:14;;;;;;;;;;;256.80;1254.40;;;;;;5072674;28;20460;-68
2022/02/28 10:40:44;;;;;;;;;;;256.90;1228.80;;;;;;5071944;28;19943;-63
2022/02/28 10:43:20;;;;;;;;;;;256.90;1203.20;;;;;;5072025;28;20354;-65
2022/02/28 10:45:45;;;;;;;;;;;256.90;1203.20;;;;;;5069580;28;20392;-63
2022/02/28 10:48:11;;;;;;;;;;;256.90;1228.80;;;;;;5073427;28;19920;-65
2022/02/28 10:50:38;;;;;;;;;;;281.60;1254.40;;;;;;5071529;28;19924;-67
2022/02/28 10:53:09;;;;;;;;;;;281.60;1254.40;;;;;;5071611;28;19915;-65
2022/02/28 10:55:35;;;;;;;;;;;281.60;1254.40;;;;;;5071925;28;20401;-68
2022/02/28 10:58:07;;;;;;;;;;;281.70;1254.40;;;;;;5088277;28;19920;-64
2022/02/28 11:00:49;;;;;;;;;;;281.60;1254.40;;;;;;5094390;28;19999;-65
2022/02/28 11:03:15;;;;;;;;;;;281.70;1254.40;;;;;;5093868;28;19926;-65
2022/02/28 11:05:52;;;;;;;;;;;281.70;1228.80;;;;;;5094170;28;20408;-69
2022/02/28 11:08:22;;;;;;;;;;;281.70;1254.40;;;;;;5091506;28;20273;-69
2022/02/28 11:10:48;;;;;;;;;;;281.70;1254.40;;;;;;5094058;28;19924;-66
2022/02/28 11:13:14;;;;;;;;;;;281.70;1254.40;;;;;;5094669;28;20333;-70
2022/02/28 11:15:40;;;;;;;;;;;281.80;1280.00;;;;;;5095363;28;19908;-69
2022/02/28 11:18:06;;;;;;;;;;;281.70;1254.40;;;;;;5094229;28;19995;-70
2022/02/28 11:20:32;;;;;;;;;;;281.70;1254.40;;;;;;5093074;28;19926;-65
2022/02/28 11:22:59;;;;;;;;;;;281.60;1254.40;;;;;;5094537;28;20278;-65
2022/02/28 11:25:25;;;;;;;;;;;281.60;1254.40;;;;;;5094275;28;19908;-69
2022/02/28 11:27:50;;;;;;;;;;;281.60;1254.40;;;;;;5095069;28;20406;-69
2022/02/28 11:30:21;;;;;;;;;;;281.60;1305.60;;;;;;5093634;28;19943;-70
2022/02/28 11:32:54;;;;;;;;;;;281.70;1280.00;;;;;;5093634;28;19962;-67
2022/02/28 11:35:37;;;;;;;;;;;281.70;1280.00;;;;;;5093319;28;19908;-64
2022/02/28 11:38:32;;;;;;;;;;;281.70;1280.00;;;;;;5091492;28;20269;-66
2022/02/28 11:41:02;;;;;;;;;;;281.70;1280.00;;;;;;5092913;28;19923;-68
2022/02/28 11:43:31;;;;;;;;;;;281.80;1280.00;;;;;;5093387;28;19919;-68
2022/02/28 11:45:58;;;;;;;;;;;281.80;1280.00;;;;;;5093475;28;20003;-66
2022/02/28 11:48:24;;;;;;;;;;;281.70;1280.00;;;;;;5092239;28;20350;-64
2022/02/28 11:50:49;;;;;;;;;;;281.70;1280.00;;;;;;5093311;28;19994;-66
2022/02/28 11:53:34;;;;;;;;;;;281.70;1305.60;;;;;;5093262;28;19923;-61
2022/02/28 11:56:00;;;;;;;;;;;281.60;1305.60;;;;;;5092169;28;19912;-62
2022/02/28 11:58:27;;;;;;;;;;;281.60;1305.60;;;;;;5092972;28;19908;-66
2022/02/28 12:01:07;;;;;;;;;;;281.60;1331.20;;;;;;5093337;28;19916;-64
2022/02/28 12:03:34;;;;;;;;;;;256.90;1305.60;;;;;;5092991;28;19919;-64
2022/02/28 12:06:03;;;;;;;;;;;256.90;1305.60;;;;;;5091925;28;20307;-64
2022/02/28 12:08:34;;;;;;;;;;;256.90;1331.20;;;;;;5092967;28;19924;-64
2022/02/28 12:11:15;;;;;;;;;;;256.70;1331.20;;;;;;5091173;28;19914;-64
2022/02/28 12:13:41;;;;;;;;;;;256.60;1331.20;;;;;;5094049;28;19911;-63
2022/02/28 12:16:07;;;;;;;;;;;256.40;1356.80;;;;;;5093326;28;19912;-66
2022/02/28 12:18:33;;;;;;;;;;;256.40;1356.80;;;;;;5092647;28;19908;-64
2022/02/28 12:21:06;;;;;;;;;;;256.30;1382.40;;;;;;5092223;28;19945;-64
2022/02/28 12:23:43;;;;;;;;;;;256.20;1382.40;;;;;;5090347;28;19916;-65
2022/02/28 12:26:10;;;;;;;;;;;256.30;1536.00;;;;;;5093540;28;19999;-66
2022/02/28 12:28:35;;;;;;;;;;;256.20;1433.60;;;;;;5093610;28;19994;-66
2022/02/28 12:31:02;;;;;;;;;;;256.20;1459.20;;;;;;5093857;28;20409;-66
2022/02/28 12:33:33;;;;;;;;;;;256.20;1459.20;;;;;;5093444;28;20037;-66
2022/02/28 12:36:08;;;;;;;;;;;256.20;1459.20;;;;;;5093759;28;20366;-66
2022/02/28 12:38:35;;;;;;;;;;;256.20;1484.80;;;;;;5097961;28;19940;-65
2022/02/28 12:41:01;;;;;;;;;;;256.20;1484.80;;;;;;5098037;28;19991;-66
2022/02/28 12:43:29;;;;;;;;;;;256.20;1484.80;;;;;;5097772;28;20361;-65
2022/02/28 12:45:57;;;;;;;;;;;256.20;1510.40;;;;;;5096993;28;20270;-66
2022/02/28 12:48:23;;;;;;;;;;;256.10;1484.80;;;;;;5097700;28;19936;-65
2022/02/28 12:50:50;;;;;;;;;;;256.10;1484.80;;;;;;5098076;28;20011;-66
2022/02/28 12:53:16;;;;;;;;;;;256.10;1484.80;;;;;;5097984;28;19908;-65
2022/02/28 12:55:48;;;;;;;;;;;256.10;1484.80;;;;;;5097634;28;19916;-65
2022/02/28 12:58:20;;;;;;;;;;;256.10;1510.40;;;;;;5097295;28;19954;-66
2022/02/28 13:00:46;;;;;;;;;;;256.00;1510.40;;;;;;5097461;28;19908;-66
2022/02/28 13:03:12;;;;;;;;;;;256.00;1510.40;;;;;;5097182;28;19966;-65
2022/02/28 13:05:38;;;;;;;;;;;256.00;1536.00;;;;;;5093579;28;19912;-68
2022/02/28 13:08:03;;;;;;;;;;;256.00;1536.00;;;;;;5097625;28;19920;-65
2022/02/28 13:10:29;;;;;;;;;;;256.00;1536.00;;;;;;5097845;28;19956;-65
2022/02/28 13:12:54;;;;;;;;;;;231.30;1561.60;;;;;;5097408;28;19908;-65
2022/02/28 13:15:21;;;;;;;;;;;231.30;1561.60;;;;;;5097634;28;19908;-65
2022/02/28 13:17:47;;;;;;;;;;;231.30;1561.60;;;;;;5097560;28;19923;-65
2022/02/28 13:20:12;;;;;;;;;;;231.20;1587.20;;;;;;5096224;28;19914;-65
2022/02/28 13:22:39;;;;;;;;;;;231.20;1587.20;;;;;;5097546;28;19985;-65
2022/02/28 13:25:06;;;;;;;;;;;231.20;1587.20;;;;;;5097428;28;19912;-65
2022/02/28 13:27:31;;;;;;;;;;;231.20;1561.60;;;;;;5097288;28;19995;-65
2022/02/28 13:29:57;;;;;;;;;;;231.10;1561.60;;;;;;5097332;28;20003;-65
2022/02/28 13:32:24;;;;;;;;;;;231.10;1587.20;;;;;;5097438;28;19912;-65
2022/02/28 13:34:54;;;;;;;;;;;231.10;1587.20;;;;;;5097539;28;19908;-65
2022/02/28 13:37:21;;;;;;;;;;;231.00;1587.20;;;;;;5097406;28;19912;-65
2022/02/28 13:39:47;;;;;;;;;;;231.00;1587.20;;;;;;5096891;28;19961;-65
2022/02/28 13:42:16;;;;;;;;;;;230.90;1587.20;;;;;;5096829;28;19912;-64